sensor_id;sensor_type;location;lat;lon;timestamp;P1;durP1;ratioP1;P2;durP2;ratioP2
56299;SDS011;42209;6.376;-10.782;2023-04-10T00:02:12;17.45;;;11.88;;
56299;SDS011;42209;6.376;-10.782;2023-04-10T00:04:40;15.93;;;11.63;;
56299;SDS011;42209;6.376;-10.782;2023-04-10T00:07:08;14.25;;;11.15;;
56299;SDS011;42209;6.376;-10.782;2023-04-10T00:09:37;15.07;;;11.98;;
56299;SDS011;42209;6.376;-10.782;2023-04-10T00:12:05;15.95;;;12.25;;
56299;SDS011;42209;6.376;-10.782;2023-04-10T00:14:33;15.88;;;11.00;;
56299;SDS011;42209;6.376;-10.782;2023-04-10T00:17:02;18.60;;;11.00;;
56299;SDS011;42209;6.376;-10.782;2023-04-10T00:19:30;14.75;;;11.35;;
56299;SDS011;42209;6.376;-10.782;2023-04-10T00:21:58;16.30;;;11.27;;
56299;SDS011;42209;6.376;-10.782;2023-04-10T00:24:26;19.83;;;11.57;;
56299;SDS011;42209;6.376;-10.782;2023-04-10T00:26:54;15.15;;;11.35;;
56299;SDS011;42209;6.376;-10.782;2023-04-10T00:29:23;15.73;;;10.80;;
56299;SDS011;42209;6.376;-10.782;2023-04-10T00:31:51;15.90;;;10.52;;
56299;SDS011;42209;6.376;-10.782;2023-04-10T00:34:20;13.55;;;10.40;;
56299;SDS011;42209;6.376;-10.782;2023-04-10T00:36:48;15.20;;;10.90;;
56299;SDS011;42209;6.376;-10.782;2023-04-10T00:39:16;20.30;;;13.45;;
56299;SDS011;42209;6.376;-10.782;2023-04-10T00:41:45;13.27;;;10.63;;
56299;SDS011;42209;6.376;-10.782;2023-04-10T00:44:14;14.82;;;11.48;;
56299;SDS011;42209;6.376;-10.782;2023-04-10T00:46:42;16.65;;;11.38;;
56299;SDS011;42209;6.376;-10.782;2023-04-10T00:49:10;16.33;;;11.48;;
56299;SDS011;42209;6.376;-10.782;2023-04-10T00:51:39;12.70;;;10.27;;
56299;SDS011;42209;6.376;-10.782;2023-04-10T00:54:07;15.50;;;11.35;;
56299;SDS011;42209;6.376;-10.782;2023-04-10T00:56:37;14.63;;;10.98;;
56299;SDS011;42209;6.376;-10.782;2023-04-10T00:59:06;12.27;;;10.88;;
56299;SDS011;42209;6.376;-10.782;2023-04-10T01:01:34;17.27;;;11.32;;
56299;SDS011;42209;6.376;-10.782;2023-04-10T01:04:02;13.52;;;9.75;;
56299;SDS011;42209;6.376;-10.782;2023-04-10T01:09:12;15.88;;;11.63;;
56299;SDS011;42209;6.376;-10.782;2023-04-10T01:11:55;16.10;;;11.15;;
56299;SDS011;42209;6.376;-10.782;2023-04-10T01:17:17;14.95;;;10.60;;
56299;SDS011;42209;6.376;-10.782;2023-04-10T01:20:11;15.93;;;11.45;;
56299;SDS011;42209;6.376;-10.782;2023-04-10T01:25:45;13.98;;;10.65;;
56299;SDS011;42209;6.376;-10.782;2023-04-10T01:31:05;14.75;;;11.00;;
56299;SDS011;42209;6.376;-10.782;2023-04-10T01:33:42;14.55;;;10.38;;
56299;SDS011;42209;6.376;-10.782;2023-04-10T01:36:17;14.57;;;10.63;;
56299;SDS011;42209;6.376;-10.782;2023-04-10T01:38:50;13.10;;;10.55;;
56299;SDS011;42209;6.376;-10.782;2023-04-10T01:41:21;13.10;;;10.02;;
56299;SDS011;42209;6.376;-10.782;2023-04-10T01:43:51;11.68;;;9.77;;
56299;SDS011;42209;6.376;-10.782;2023-04-10T01:46:21;17.25;;;10.63;;
56299;SDS011;42209;6.376;-10.782;2023-04-10T01:48:51;11.68;;;9.48;;
56299;SDS011;42209;6.376;-10.782;2023-04-10T01:51:22;12.10;;;9.80;;
56299;SDS011;42209;6.376;-10.782;2023-04-10T01:56:23;13.63;;;10.40;;
56299;SDS011;42209;6.376;-10.782;2023-04-10T01:58:52;16.23;;;10.75;;
56299;SDS011;42209;6.376;-10.782;2023-04-10T02:01:20;11.63;;;9.70;;
56299;SDS011;42209;6.376;-10.782;2023-04-10T02:03:57;10.27;;;9.20;;
56299;SDS011;42209;6.376;-10.782;2023-04-10T02:07:10;16.52;;;9.35;;
56299;SDS011;42209;6.376;-10.782;2023-04-10T02:12:51;12.75;;;10.05;;
56299;SDS011;42209;6.376;-10.782;2023-04-10T02:15:22;12.27;;;9.32;;
56299;SDS011;42209;6.376;-10.782;2023-04-10T02:17:52;14.90;;;10.13;;
56299;SDS011;42209;6.376;-10.782;2023-04-10T02:20:22;11.85;;;9.77;;
56299;SDS011;42209;6.376;-10.782;2023-04-10T02:22:52;14.00;;;9.15;;
56299;SDS011;42209;6.376;-10.782;2023-04-10T02:25:20;12.93;;;9.73;;
56299;SDS011;42209;6.376;-10.782;2023-04-10T02:27:48;11.43;;;9.88;;
56299;SDS011;42209;6.376;-10.782;2023-04-10T02:30:17;12.40;;;9.45;;
56299;SDS011;42209;6.376;-10.782;2023-04-10T02:32:45;16.52;;;10.13;;
56299;SDS011;42209;6.376;-10.782;2023-04-10T02:35:16;15.52;;;9.05;;
56299;SDS011;42209;6.376;-10.782;2023-04-10T02:37:44;12.63;;;8.95;;
56299;SDS011;42209;6.376;-10.782;2023-04-10T02:40:14;12.38;;;8.88;;
56299;SDS011;42209;6.376;-10.782;2023-04-10T02:42:52;11.10;;;8.75;;
56299;SDS011;42209;6.376;-10.782;2023-04-10T02:45:20;9.75;;;8.02;;
56299;SDS011;42209;6.376;-10.782;2023-04-10T02:47:49;15.60;;;9.80;;
56299;SDS011;42209;6.376;-10.782;2023-04-10T02:50:18;13.70;;;8.95;;
56299;SDS011;42209;6.376;-10.782;2023-04-10T02:52:46;12.38;;;9.93;;
56299;SDS011;42209;6.376;-10.782;2023-04-10T02:55:15;13.88;;;9.27;;
56299;SDS011;42209;6.376;-10.782;2023-04-10T02:57:43;15.45;;;9.15;;
56299;SDS011;42209;6.376;-10.782;2023-04-10T03:00:11;13.52;;;8.90;;
56299;SDS011;42209;6.376;-10.782;2023-04-10T03:03:12;13.10;;;9.70;;
56299;SDS011;42209;6.376;-10.782;2023-04-10T03:05:46;17.13;;;9.80;;
56299;SDS011;42209;6.376;-10.782;2023-04-10T03:08:19;11.57;;;8.30;;
56299;SDS011;42209;6.376;-10.782;2023-04-10T03:10:48;10.57;;;8.63;;
56299;SDS011;42209;6.376;-10.782;2023-04-10T03:13:16;13.70;;;9.18;;
56299;SDS011;42209;6.376;-10.782;2023-04-10T03:15:45;11.80;;;9.10;;
56299;SDS011;42209;6.376;-10.782;2023-04-10T03:18:13;14.25;;;9.93;;
56299;SDS011;42209;6.376;-10.782;2023-04-10T03:20:43;14.02;;;9.25;;
56299;SDS011;42209;6.376;-10.782;2023-04-10T03:23:11;9.63;;;8.50;;
56299;SDS011;42209;6.376;-10.782;2023-04-10T03:25:40;10.75;;;8.95;;
56299;SDS011;42209;6.376;-10.782;2023-04-10T03:28:09;9.70;;;8.57;;
56299;SDS011;42209;6.376;-10.782;2023-04-10T03:30:37;11.40;;;8.02;;
56299;SDS011;42209;6.376;-10.782;2023-04-10T03:33:07;13.02;;;8.90;;
56299;SDS011;42209;6.376;-10.782;2023-04-10T03:35:35;13.65;;;9.40;;
56299;SDS011;42209;6.376;-10.782;2023-04-10T03:38:05;12.80;;;8.63;;
56299;SDS011;42209;6.376;-10.782;2023-04-10T03:40:34;15.52;;;8.77;;
56299;SDS011;42209;6.376;-10.782;2023-04-10T03:43:05;11.80;;;10.00;;
56299;SDS011;42209;6.376;-10.782;2023-04-10T03:48:02;13.95;;;9.13;;
56299;SDS011;42209;6.376;-10.782;2023-04-10T03:50:39;14.07;;;8.90;;
56299;SDS011;42209;6.376;-10.782;2023-04-10T03:53:08;10.98;;;8.13;;
56299;SDS011;42209;6.376;-10.782;2023-04-10T03:55:37;10.70;;;8.32;;
56299;SDS011;42209;6.376;-10.782;2023-04-10T03:58:05;13.40;;;8.43;;
56299;SDS011;42209;6.376;-10.782;2023-04-10T04:00:34;13.55;;;8.60;;
56299;SDS011;42209;6.376;-10.782;2023-04-10T04:03:20;10.48;;;8.57;;
56299;SDS011;42209;6.376;-10.782;2023-04-10T04:05:51;10.75;;;8.27;;
56299;SDS011;42209;6.376;-10.782;2023-04-10T04:08:42;12.32;;;7.53;;
56299;SDS011;42209;6.376;-10.782;2023-04-10T04:11:17;13.68;;;8.70;;
56299;SDS011;42209;6.376;-10.782;2023-04-10T04:14:01;11.48;;;7.95;;
56299;SDS011;42209;6.376;-10.782;2023-04-10T04:16:43;11.38;;;7.93;;
56299;SDS011;42209;6.376;-10.782;2023-04-10T04:19:24;9.30;;;8.27;;
56299;SDS011;42209;6.376;-10.782;2023-04-10T04:22:22;14.40;;;8.60;;
56299;SDS011;42209;6.376;-10.782;2023-04-10T04:25:01;11.70;;;8.38;;
56299;SDS011;42209;6.376;-10.782;2023-04-10T04:27:59;11.63;;;8.82;;
56299;SDS011;42209;6.376;-10.782;2023-04-10T04:30:33;12.05;;;8.57;;
56299;SDS011;42209;6.376;-10.782;2023-04-10T04:33:30;12.02;;;8.02;;
56299;SDS011;42209;6.376;-10.782;2023-04-10T04:36:08;10.77;;;7.88;;
56299;SDS011;42209;6.376;-10.782;2023-04-10T04:41:24;11.23;;;7.80;;
56299;SDS011;42209;6.376;-10.782;2023-04-10T04:44:22;10.95;;;7.70;;
56299;SDS011;42209;6.376;-10.782;2023-04-10T04:47:10;10.18;;;7.32;;
56299;SDS011;42209;6.376;-10.782;2023-04-10T04:49:57;11.07;;;8.80;;
56299;SDS011;42209;6.376;-10.782;2023-04-10T04:52:41;10.65;;;7.65;;
56299;SDS011;42209;6.376;-10.782;2023-04-10T04:58:18;10.07;;;8.30;;
56299;SDS011;42209;6.376;-10.782;2023-04-10T05:01:08;10.25;;;7.85;;
56299;SDS011;42209;6.376;-10.782;2023-04-10T05:04:12;10.60;;;8.55;;
56299;SDS011;42209;6.376;-10.782;2023-04-10T05:06:52;10.20;;;8.55;;
56299;SDS011;42209;6.376;-10.782;2023-04-10T05:09:37;9.90;;;7.43;;
56299;SDS011;42209;6.376;-10.782;2023-04-10T05:12:34;13.90;;;8.32;;
56299;SDS011;42209;6.376;-10.782;2023-04-10T05:15:19;11.23;;;7.50;;
56299;SDS011;42209;6.376;-10.782;2023-04-10T05:18:06;9.95;;;7.70;;
56299;SDS011;42209;6.376;-10.782;2023-04-10T05:20:55;9.00;;;7.45;;
56299;SDS011;42209;6.376;-10.782;2023-04-10T05:23:43;12.23;;;8.48;;
56299;SDS011;42209;6.376;-10.782;2023-04-10T05:26:37;11.18;;;8.77;;
56299;SDS011;42209;6.376;-10.782;2023-04-10T05:29:11;11.20;;;7.90;;
56299;SDS011;42209;6.376;-10.782;2023-04-10T05:32:05;12.73;;;8.25;;
56299;SDS011;42209;6.376;-10.782;2023-04-10T05:34:51;9.23;;;7.60;;
56299;SDS011;42209;6.376;-10.782;2023-04-10T05:37:38;10.50;;;8.63;;
56299;SDS011;42209;6.376;-10.782;2023-04-10T05:40:28;10.00;;;8.07;;
56299;SDS011;42209;6.376;-10.782;2023-04-10T05:43:12;12.32;;;8.40;;
56299;SDS011;42209;6.376;-10.782;2023-04-10T05:46:00;13.48;;;8.90;;
56299;SDS011;42209;6.376;-10.782;2023-04-10T05:48:57;13.05;;;9.02;;
56299;SDS011;42209;6.376;-10.782;2023-04-10T05:51:32;10.52;;;8.77;;
56299;SDS011;42209;6.376;-10.782;2023-04-10T05:54:26;10.75;;;8.43;;
56299;SDS011;42209;6.376;-10.782;2023-04-10T05:57:14;10.60;;;7.95;;
56299;SDS011;42209;6.376;-10.782;2023-04-10T06:00:06;12.57;;;8.02;;
56299;SDS011;42209;6.376;-10.782;2023-04-10T06:03:00;14.15;;;7.30;;
56299;SDS011;42209;6.376;-10.782;2023-04-10T06:05:37;10.02;;;7.50;;
56299;SDS011;42209;6.376;-10.782;2023-04-10T06:08:06;11.00;;;8.10;;
56299;SDS011;42209;6.376;-10.782;2023-04-10T06:10:34;10.48;;;7.93;;
56299;SDS011;42209;6.376;-10.782;2023-04-10T06:13:03;10.23;;;7.95;;
56299;SDS011;42209;6.376;-10.782;2023-04-10T06:15:31;12.52;;;9.00;;
56299;SDS011;42209;6.376;-10.782;2023-04-10T06:17:59;10.18;;;8.82;;
56299;SDS011;42209;6.376;-10.782;2023-04-10T06:22:57;9.23;;;6.72;;
56299;SDS011;42209;6.376;-10.782;2023-04-10T06:25:25;10.98;;;8.00;;
56299;SDS011;42209;6.376;-10.782;2023-04-10T06:27:54;11.98;;;8.55;;
56299;SDS011;42209;6.376;-10.782;2023-04-10T06:30:22;11.40;;;8.15;;
56299;SDS011;42209;6.376;-10.782;2023-04-10T06:32:50;9.45;;;8.43;;
56299;SDS011;42209;6.376;-10.782;2023-04-10T06:35:19;11.30;;;8.35;;
56299;SDS011;42209;6.376;-10.782;2023-04-10T06:37:47;9.73;;;8.35;;
56299;SDS011;42209;6.376;-10.782;2023-04-10T06:40:16;9.82;;;7.75;;
56299;SDS011;42209;6.376;-10.782;2023-04-10T06:42:44;9.90;;;7.50;;
56299;SDS011;42209;6.376;-10.782;2023-04-10T06:45:35;10.23;;;7.72;;
56299;SDS011;42209;6.376;-10.782;2023-04-10T06:48:04;11.38;;;7.97;;
56299;SDS011;42209;6.376;-10.782;2023-04-10T06:53:01;8.07;;;7.22;;
56299;SDS011;42209;6.376;-10.782;2023-04-10T06:55:29;9.48;;;7.43;;
56299;SDS011;42209;6.376;-10.782;2023-04-10T06:57:57;9.85;;;7.28;;
56299;SDS011;42209;6.376;-10.782;2023-04-10T07:00:25;8.77;;;6.68;;
56299;SDS011;42209;6.376;-10.782;2023-04-10T07:02:54;9.57;;;7.45;;
56299;SDS011;42209;6.376;-10.782;2023-04-10T07:05:22;8.60;;;7.07;;
56299;SDS011;42209;6.376;-10.782;2023-04-10T07:07:51;7.85;;;6.80;;
56299;SDS011;42209;6.376;-10.782;2023-04-10T07:10:19;8.75;;;7.85;;
56299;SDS011;42209;6.376;-10.782;2023-04-10T07:12:47;7.88;;;6.93;;
56299;SDS011;42209;6.376;-10.782;2023-04-10T07:15:15;9.57;;;7.38;;
56299;SDS011;42209;6.376;-10.782;2023-04-10T07:17:44;10.48;;;7.68;;
56299;SDS011;42209;6.376;-10.782;2023-04-10T07:20:14;10.25;;;7.07;;
56299;SDS011;42209;6.376;-10.782;2023-04-10T07:22:42;9.50;;;6.53;;
56299;SDS011;42209;6.376;-10.782;2023-04-10T07:25:10;7.90;;;6.57;;
56299;SDS011;42209;6.376;-10.782;2023-04-10T07:27:38;9.52;;;7.40;;
56299;SDS011;42209;6.376;-10.782;2023-04-10T07:30:07;13.82;;;9.20;;
56299;SDS011;42209;6.376;-10.782;2023-04-10T07:32:38;10.75;;;8.48;;
56299;SDS011;42209;6.376;-10.782;2023-04-10T07:35:07;14.93;;;8.23;;
56299;SDS011;42209;6.376;-10.782;2023-04-10T07:40:04;13.38;;;8.80;;
56299;SDS011;42209;6.376;-10.782;2023-04-10T07:42:34;12.23;;;8.40;;
56299;SDS011;42209;6.376;-10.782;2023-04-10T07:45:02;9.15;;;8.23;;
56299;SDS011;42209;6.376;-10.782;2023-04-10T07:47:31;10.15;;;7.88;;
56299;SDS011;42209;6.376;-10.782;2023-04-10T07:49:59;12.95;;;9.23;;
56299;SDS011;42209;6.376;-10.782;2023-04-10T07:52:28;12.70;;;8.68;;
56299;SDS011;42209;6.376;-10.782;2023-04-10T07:54:56;13.07;;;8.55;;
56299;SDS011;42209;6.376;-10.782;2023-04-10T07:57:24;11.77;;;8.90;;
56299;SDS011;42209;6.376;-10.782;2023-04-10T07:59:52;14.65;;;8.70;;
56299;SDS011;42209;6.376;-10.782;2023-04-10T08:02:20;16.20;;;9.07;;
56299;SDS011;42209;6.376;-10.782;2023-04-10T08:04:49;13.85;;;8.75;;
56299;SDS011;42209;6.376;-10.782;2023-04-10T08:07:18;15.43;;;9.85;;
56299;SDS011;42209;6.376;-10.782;2023-04-10T08:09:47;11.13;;;8.95;;
56299;SDS011;42209;6.376;-10.782;2023-04-10T08:12:15;17.17;;;9.63;;
56299;SDS011;42209;6.376;-10.782;2023-04-10T08:14:44;12.13;;;8.65;;
56299;SDS011;42209;6.376;-10.782;2023-04-10T08:17:12;15.35;;;9.15;;
56299;SDS011;42209;6.376;-10.782;2023-04-10T08:19:41;12.93;;;8.80;;
56299;SDS011;42209;6.376;-10.782;2023-04-10T08:22:09;11.75;;;8.90;;
56299;SDS011;42209;6.376;-10.782;2023-04-10T08:24:37;11.93;;;9.18;;
56299;SDS011;42209;6.376;-10.782;2023-04-10T08:27:06;15.23;;;8.80;;
56299;SDS011;42209;6.376;-10.782;2023-04-10T08:29:34;15.18;;;9.98;;
56299;SDS011;42209;6.376;-10.782;2023-04-10T08:32:02;14.13;;;10.05;;
56299;SDS011;42209;6.376;-10.782;2023-04-10T08:34:31;13.40;;;8.98;;
56299;SDS011;42209;6.376;-10.782;2023-04-10T08:36:59;13.48;;;8.48;;
56299;SDS011;42209;6.376;-10.782;2023-04-10T08:39:33;15.25;;;9.02;;
56299;SDS011;42209;6.376;-10.782;2023-04-10T08:42:02;14.57;;;8.57;;
56299;SDS011;42209;6.376;-10.782;2023-04-10T08:44:30;15.25;;;9.05;;
56299;SDS011;42209;6.376;-10.782;2023-04-10T08:46:59;17.05;;;9.45;;
56299;SDS011;42209;6.376;-10.782;2023-04-10T08:49:50;14.65;;;9.38;;
56299;SDS011;42209;6.376;-10.782;2023-04-10T08:52:25;14.32;;;10.20;;
56299;SDS011;42209;6.376;-10.782;2023-04-10T08:54:57;12.43;;;9.02;;
56299;SDS011;42209;6.376;-10.782;2023-04-10T08:57:28;14.25;;;10.23;;
56299;SDS011;42209;6.376;-10.782;2023-04-10T08:59:57;13.75;;;9.60;;
56299;SDS011;42209;6.376;-10.782;2023-04-10T09:02:38;15.02;;;9.63;;
56299;SDS011;42209;6.376;-10.782;2023-04-10T09:05:11;12.05;;;8.57;;
56299;SDS011;42209;6.376;-10.782;2023-04-10T09:07:40;16.85;;;10.38;;
56299;SDS011;42209;6.376;-10.782;2023-04-10T09:10:08;13.15;;;8.70;;
56299;SDS011;42209;6.376;-10.782;2023-04-10T09:12:46;13.15;;;9.13;;
56299;SDS011;42209;6.376;-10.782;2023-04-10T09:15:15;17.52;;;10.32;;
56299;SDS011;42209;6.376;-10.782;2023-04-10T09:20:30;13.15;;;8.85;;
56299;SDS011;42209;6.376;-10.782;2023-04-10T09:22:58;14.00;;;9.07;;
56299;SDS011;42209;6.376;-10.782;2023-04-10T09:25:33;16.67;;;9.45;;
56299;SDS011;42209;6.376;-10.782;2023-04-10T09:28:04;15.82;;;10.52;;
56299;SDS011;42209;6.376;-10.782;2023-04-10T09:33:21;13.23;;;9.80;;
56299;SDS011;42209;6.376;-10.782;2023-04-10T09:35:51;17.27;;;10.18;;
56299;SDS011;42209;6.376;-10.782;2023-04-10T09:38:20;17.27;;;9.55;;
56299;SDS011;42209;6.376;-10.782;2023-04-10T09:40:48;13.43;;;9.35;;
56299;SDS011;42209;6.376;-10.782;2023-04-10T09:43:20;15.23;;;9.88;;
56299;SDS011;42209;6.376;-10.782;2023-04-10T09:45:52;18.67;;;11.07;;
56299;SDS011;42209;6.376;-10.782;2023-04-10T09:48:22;13.63;;;9.60;;
56299;SDS011;42209;6.376;-10.782;2023-04-10T09:50:52;13.90;;;9.93;;
56299;SDS011;42209;6.376;-10.782;2023-04-10T09:53:20;14.35;;;10.13;;
56299;SDS011;42209;6.376;-10.782;2023-04-10T09:55:49;16.27;;;9.30;;
56299;SDS011;42209;6.376;-10.782;2023-04-10T09:58:17;14.50;;;9.70;;
56299;SDS011;42209;6.376;-10.782;2023-04-10T10:00:46;16.88;;;10.57;;
56299;SDS011;42209;6.376;-10.782;2023-04-10T10:03:16;15.82;;;10.10;;
56299;SDS011;42209;6.376;-10.782;2023-04-10T10:05:49;12.63;;;9.90;;
56299;SDS011;42209;6.376;-10.782;2023-04-10T10:08:18;15.95;;;10.10;;
56299;SDS011;42209;6.376;-10.782;2023-04-10T10:10:50;13.50;;;9.38;;
56299;SDS011;42209;6.376;-10.782;2023-04-10T10:13:27;14.65;;;9.95;;
56299;SDS011;42209;6.376;-10.782;2023-04-10T10:16:14;15.48;;;9.45;;
56299;SDS011;42209;6.376;-10.782;2023-04-10T10:18:54;14.50;;;8.63;;
56299;SDS011;42209;6.376;-10.782;2023-04-10T10:21:37;15.65;;;9.73;;
56299;SDS011;42209;6.376;-10.782;2023-04-10T10:24:08;14.55;;;9.73;;
56299;SDS011;42209;6.376;-10.782;2023-04-10T10:26:39;12.77;;;9.85;;
56299;SDS011;42209;6.376;-10.782;2023-04-10T10:29:08;14.75;;;9.43;;
56299;SDS011;42209;6.376;-10.782;2023-04-10T10:31:37;12.70;;;9.02;;
56299;SDS011;42209;6.376;-10.782;2023-04-10T10:34:05;12.70;;;9.07;;
56299;SDS011;42209;6.376;-10.782;2023-04-10T10:36:34;15.13;;;9.68;;
56299;SDS011;42209;6.376;-10.782;2023-04-10T10:41:37;13.05;;;10.70;;
56299;SDS011;42209;6.376;-10.782;2023-04-10T10:44:47;15.82;;;10.98;;
56299;SDS011;42209;6.376;-10.782;2023-04-10T10:47:33;15.15;;;9.63;;
56299;SDS011;42209;6.376;-10.782;2023-04-10T10:50:11;20.35;;;10.63;;
56299;SDS011;42209;6.376;-10.782;2023-04-10T10:52:40;18.55;;;9.88;;
56299;SDS011;42209;6.376;-10.782;2023-04-10T10:57:49;20.38;;;10.25;;
56299;SDS011;42209;6.376;-10.782;2023-04-10T11:00:20;19.33;;;10.75;;
56299;SDS011;42209;6.376;-10.782;2023-04-10T11:05:48;19.48;;;11.13;;
56299;SDS011;42209;6.376;-10.782;2023-04-10T11:08:39;18.50;;;11.70;;
56299;SDS011;42209;6.376;-10.782;2023-04-10T11:11:12;17.27;;;10.82;;
56299;SDS011;42209;6.376;-10.782;2023-04-10T11:13:41;19.98;;;10.85;;
56299;SDS011;42209;6.376;-10.782;2023-04-10T11:16:11;20.02;;;11.30;;
56299;SDS011;42209;6.376;-10.782;2023-04-10T11:21:28;18.38;;;11.60;;
56299;SDS011;42209;6.376;-10.782;2023-04-10T11:31:39;18.52;;;9.32;;
56299;SDS011;42209;6.376;-10.782;2023-04-10T11:34:09;14.40;;;9.27;;
56299;SDS011;42209;6.376;-10.782;2023-04-10T11:36:38;14.73;;;9.35;;
56299;SDS011;42209;6.376;-10.782;2023-04-10T11:39:10;16.33;;;9.57;;
56299;SDS011;42209;6.376;-10.782;2023-04-10T11:41:43;16.15;;;10.00;;
56299;SDS011;42209;6.376;-10.782;2023-04-10T11:44:25;15.95;;;9.80;;
56299;SDS011;42209;6.376;-10.782;2023-04-10T11:50:09;16.02;;;9.00;;
56299;SDS011;42209;6.376;-10.782;2023-04-10T11:52:40;13.80;;;9.48;;
56299;SDS011;42209;6.376;-10.782;2023-04-10T11:55:08;13.45;;;9.25;;
56299;SDS011;42209;6.376;-10.782;2023-04-10T11:57:37;13.05;;;8.40;;
56299;SDS011;42209;6.376;-10.782;2023-04-10T12:00:05;15.15;;;9.60;;
56299;SDS011;42209;6.376;-10.782;2023-04-10T12:05:02;12.80;;;9.07;;
56299;SDS011;42209;6.376;-10.782;2023-04-10T12:07:31;15.65;;;7.93;;
56299;SDS011;42209;6.376;-10.782;2023-04-10T12:09:59;12.35;;;8.63;;
56299;SDS011;42209;6.376;-10.782;2023-04-10T12:12:34;16.17;;;9.32;;
56299;SDS011;42209;6.376;-10.782;2023-04-10T12:15:06;12.43;;;8.13;;
56299;SDS011;42209;6.376;-10.782;2023-04-10T12:17:54;16.27;;;9.23;;
56299;SDS011;42209;6.376;-10.782;2023-04-10T12:20:22;14.95;;;8.50;;
56299;SDS011;42209;6.376;-10.782;2023-04-10T12:22:51;14.52;;;8.07;;
56299;SDS011;42209;6.376;-10.782;2023-04-10T12:25:21;9.88;;;7.10;;
56299;SDS011;42209;6.376;-10.782;2023-04-10T12:27:52;12.15;;;7.72;;
56299;SDS011;42209;6.376;-10.782;2023-04-10T12:30:21;11.45;;;7.63;;
56299;SDS011;42209;6.376;-10.782;2023-04-10T12:32:49;12.90;;;7.88;;
56299;SDS011;42209;6.376;-10.782;2023-04-10T12:35:18;14.25;;;7.78;;
56299;SDS011;42209;6.376;-10.782;2023-04-10T12:37:47;16.15;;;7.63;;
56299;SDS011;42209;6.376;-10.782;2023-04-10T12:40:19;11.25;;;7.40;;
56299;SDS011;42209;6.376;-10.782;2023-04-10T12:42:47;12.25;;;7.90;;
56299;SDS011;42209;6.376;-10.782;2023-04-10T12:45:16;10.90;;;7.35;;
56299;SDS011;42209;6.376;-10.782;2023-04-10T12:47:47;9.75;;;7.25;;
56299;SDS011;42209;6.376;-10.782;2023-04-10T12:50:17;11.90;;;7.68;;
56299;SDS011;42209;6.376;-10.782;2023-04-10T12:53:07;10.25;;;6.95;;
56299;SDS011;42209;6.376;-10.782;2023-04-10T12:55:35;10.98;;;7.65;;
56299;SDS011;42209;6.376;-10.782;2023-04-10T12:58:16;12.25;;;7.60;;
56299;SDS011;42209;6.376;-10.782;2023-04-10T13:00:45;13.60;;;7.47;;
56299;SDS011;42209;6.376;-10.782;2023-04-10T13:03:14;10.93;;;7.35;;
56299;SDS011;42209;6.376;-10.782;2023-04-10T13:05:43;12.35;;;7.15;;
56299;SDS011;42209;6.376;-10.782;2023-04-10T13:08:11;10.10;;;7.57;;
56299;SDS011;42209;6.376;-10.782;2023-04-10T13:10:40;9.40;;;7.40;;
56299;SDS011;42209;6.376;-10.782;2023-04-10T13:13:08;11.18;;;7.43;;
56299;SDS011;42209;6.376;-10.782;2023-04-10T13:15:36;10.85;;;7.03;;
56299;SDS011;42209;6.376;-10.782;2023-04-10T13:20:34;11.43;;;6.35;;
56299;SDS011;42209;6.376;-10.782;2023-04-10T13:23:03;11.85;;;6.95;;
56299;SDS011;42209;6.376;-10.782;2023-04-10T13:25:31;10.27;;;7.00;;
56299;SDS011;42209;6.376;-10.782;2023-04-10T13:28:01;10.57;;;6.13;;
56299;SDS011;42209;6.376;-10.782;2023-04-10T13:30:29;9.18;;;6.60;;
56299;SDS011;42209;6.376;-10.782;2023-04-10T13:32:57;9.65;;;6.35;;
56299;SDS011;42209;6.376;-10.782;2023-04-10T13:35:26;9.38;;;6.55;;
56299;SDS011;42209;6.376;-10.782;2023-04-10T13:37:54;11.77;;;6.88;;
56299;SDS011;42209;6.376;-10.782;2023-04-10T13:40:22;11.38;;;7.20;;
56299;SDS011;42209;6.376;-10.782;2023-04-10T13:42:50;10.95;;;6.53;;
56299;SDS011;42209;6.376;-10.782;2023-04-10T13:45:19;9.98;;;6.30;;
56299;SDS011;42209;6.376;-10.782;2023-04-10T13:47:47;10.43;;;6.45;;
56299;SDS011;42209;6.376;-10.782;2023-04-10T13:50:15;10.60;;;6.10;;
56299;SDS011;42209;6.376;-10.782;2023-04-10T13:52:44;10.05;;;6.38;;
56299;SDS011;42209;6.376;-10.782;2023-04-10T13:55:12;9.25;;;6.15;;
56299;SDS011;42209;6.376;-10.782;2023-04-10T13:57:40;12.45;;;6.43;;
56299;SDS011;42209;6.376;-10.782;2023-04-10T14:00:10;9.73;;;6.22;;
56299;SDS011;42209;6.376;-10.782;2023-04-10T14:02:39;11.00;;;7.25;;
56299;SDS011;42209;6.376;-10.782;2023-04-10T14:05:07;8.77;;;6.53;;
56299;SDS011;42209;6.376;-10.782;2023-04-10T14:07:36;14.68;;;7.30;;
56299;SDS011;42209;6.376;-10.782;2023-04-10T14:10:04;17.83;;;7.45;;
56299;SDS011;42209;6.376;-10.782;2023-04-10T14:12:33;14.45;;;6.70;;
56299;SDS011;42209;6.376;-10.782;2023-04-10T14:15:03;16.70;;;6.50;;
56299;SDS011;42209;6.376;-10.782;2023-04-10T14:17:32;14.70;;;7.10;;
56299;SDS011;42209;6.376;-10.782;2023-04-10T14:20:00;10.85;;;6.47;;
56299;SDS011;42209;6.376;-10.782;2023-04-10T14:22:29;19.88;;;7.65;;
56299;SDS011;42209;6.376;-10.782;2023-04-10T14:24:57;14.50;;;7.03;;
56299;SDS011;42209;6.376;-10.782;2023-04-10T14:27:38;15.70;;;7.43;;
56299;SDS011;42209;6.376;-10.782;2023-04-10T14:30:07;11.48;;;7.18;;
56299;SDS011;42209;6.376;-10.782;2023-04-10T14:32:38;13.18;;;6.72;;
56299;SDS011;42209;6.376;-10.782;2023-04-10T14:35:07;16.45;;;7.40;;
56299;SDS011;42209;6.376;-10.782;2023-04-10T14:37:36;14.93;;;7.82;;
56299;SDS011;42209;6.376;-10.782;2023-04-10T14:40:05;22.65;;;7.85;;
56299;SDS011;42209;6.376;-10.782;2023-04-10T14:42:34;14.30;;;7.00;;
56299;SDS011;42209;6.376;-10.782;2023-04-10T14:45:02;15.43;;;8.02;;
56299;SDS011;42209;6.376;-10.782;2023-04-10T14:47:30;13.18;;;7.55;;
56299;SDS011;42209;6.376;-10.782;2023-04-10T14:49:59;19.15;;;8.23;;
56299;SDS011;42209;6.376;-10.782;2023-04-10T14:52:27;14.02;;;7.18;;
56299;SDS011;42209;6.376;-10.782;2023-04-10T14:54:56;14.02;;;7.85;;
56299;SDS011;42209;6.376;-10.782;2023-04-10T14:57:24;12.57;;;7.25;;
56299;SDS011;42209;6.376;-10.782;2023-04-10T14:59:52;14.48;;;7.93;;
56299;SDS011;42209;6.376;-10.782;2023-04-10T15:02:20;14.00;;;7.78;;
56299;SDS011;42209;6.376;-10.782;2023-04-10T15:04:49;14.07;;;8.23;;
56299;SDS011;42209;6.376;-10.782;2023-04-10T15:09:46;15.35;;;7.63;;
56299;SDS011;42209;6.376;-10.782;2023-04-10T15:14:42;12.73;;;7.78;;
56299;SDS011;42209;6.376;-10.782;2023-04-10T15:17:10;12.93;;;7.43;;
56299;SDS011;42209;6.376;-10.782;2023-04-10T15:19:41;20.73;;;9.15;;
56299;SDS011;42209;6.376;-10.782;2023-04-10T15:22:09;16.25;;;7.28;;
56299;SDS011;42209;6.376;-10.782;2023-04-10T15:24:38;18.25;;;8.75;;
56299;SDS011;42209;6.376;-10.782;2023-04-10T15:27:19;35.53;;;9.20;;
56299;SDS011;42209;6.376;-10.782;2023-04-10T15:29:48;28.90;;;9.45;;
56299;SDS011;42209;6.376;-10.782;2023-04-10T15:32:16;28.02;;;8.43;;
56299;SDS011;42209;6.376;-10.782;2023-04-10T15:34:44;22.02;;;8.63;;
56299;SDS011;42209;6.376;-10.782;2023-04-10T15:37:13;26.55;;;9.52;;
56299;SDS011;42209;6.376;-10.782;2023-04-10T15:39:41;23.13;;;9.73;;
56299;SDS011;42209;6.376;-10.782;2023-04-10T15:42:09;25.15;;;8.27;;
56299;SDS011;42209;6.376;-10.782;2023-04-10T15:44:38;22.40;;;8.27;;
56299;SDS011;42209;6.376;-10.782;2023-04-10T15:47:06;22.48;;;9.05;;
56299;SDS011;42209;6.376;-10.782;2023-04-10T15:49:34;17.13;;;8.10;;
56299;SDS011;42209;6.376;-10.782;2023-04-10T15:52:04;20.33;;;7.75;;
56299;SDS011;42209;6.376;-10.782;2023-04-10T15:57:01;20.38;;;8.38;;
56299;SDS011;42209;6.376;-10.782;2023-04-10T16:01:59;20.52;;;8.00;;
56299;SDS011;42209;6.376;-10.782;2023-04-10T16:04:27;16.75;;;7.75;;
56299;SDS011;42209;6.376;-10.782;2023-04-10T16:06:56;15.27;;;7.22;;